South Cle Elum, WA (98943)

3:38 PM PDT on September 27, 2016 (GMT -0700)
Cle Elum-Roslyn High School | | Change Station

Elev 2107 ft 47.20 °N, 120.97 °W | Updated 9 minutes ago

Clear
Clear
68.4 °F
Feels Like 68.4 °F
N
13.0
Wind Variable Wind from WSW

Today
High -- | Low -- °F
--% Chance of Precip.
Yesterday
High -- | Low -- °F
Precip. -- in
Pressure 30.00 in
Visibility 10.0 miles
Clouds Clear
Dew Point 46 °F
Humidity 45%
Rainfall 0.00 in
Snow Depth Not available.
6:58 AM 6:50 PM
Waning Crescent, 9% visible
METAR KELN 272153Z AUTO 30019G24KT 10SM CLR 25/08 A3003 RMK AO2 SLP159 T02500078
Pressure 30.00 in
Visibility 10.0 miles
Clouds Clear
Dew Point 46 °F
Humidity 45%
Rainfall 0.00 in
Snow Depth Not available.
6:58 AM 6:50 PM
Waning Crescent, 9% visible
METAR KELN 272153Z AUTO 30019G24KT 10SM CLR 25/08 A3003 RMK AO2 SLP159 T02500078

10-Day Weather Forecast

Almanac

Astronomy

Sep. 27, 2016 Rise Set
Actual Time
Civil Twilight
Nautical Twilight
Astronomical Twilight
Moon
Length of Visible Light
Length of Day
Tomorrow will be .
, % of the Moon is Illuminated

Today's Extremes

State Highs State Lows

Community

WunderPhotos

Upload Photos

1,942,173 photos uploaded!

WunderBlog® & News

Nearby

Air Quality

  Air Quality AQ Index Pollutant
Not available.

Snow Depth

Station Depth Elevation

Earthquake Activity

City Distance Mag. Time & Date
Minimum magnitude displayed is 2.5.

Coastal Water Temperatures

Place Temperature

Stations

Nearby Weather Stations

Station Location Temp. Windchill Dew Point Humidity Wind Precip. Elev Updated Type
                   

Watches & Warnings

There are currently no watches in effect.